Terminal Aerodrome Forecast
Issued by NWS

Home | Current Version | Previous Version | Text Only | Print | Product List | Glossary On
Versions: 1 2 3 4 5 6 7 8 9 10 11 12 13 14 15 16 17 18 19 20 21 22
000
FTUS43 KGRB 080200 AAA
TAFATW
TAF AMD
KATW 080236Z 0803/0824 23006KT 6SM SHRA BR SCT030 BKN070
      TEMPO 0803/0807 2SM TSRA BR BKN030CB
     FM080700 25006KT 5SM BR VCSH SCT010 OVC025
     FM081100 29008KT 5SM BR SCT005 OVC015
     FM081600 30011KT P6SM VCSH SCT015 BKN035=

USA.gov is the U.S. government's official web portal to all federal, state and local government web resources and services.